Koenig, Missouri
Current Conditions -  °F | °C
As of 10:24 AM on Monday 26 Jan 2015 (Local Time) from KVIH Reporting Station
Broken Clouds Broken Clouds  
Wind Chill: 28°   Ceiling: 1400
Heat Index: 36°   Visibility: 10mi
Dew Point: 30°   Wind: 13mph
Humidity: 79%   Direction: 220°SW
Pressure: 30"   Gusts: NA
Location:  38.2601°N, 91.7526°W
Report Text: KVIH 261624Z AUTO 22011KT 10SM BKN014 BKN110 02/M01 A3000 RMK AO2 T00221011
Loading
Personal Weather Stations






























Interactive Weather Map New forecast layout! Learn more

10-Day Weather Forecast

Advertisements
Track Severe Weather on mobile